sensor_id;sensor_type;location;lat;lon;timestamp;temperature;humidity
43607;DHT22;29197;44.788;10.366;2022-12-07T00:02:41;8.90;99.90
43607;DHT22;29197;44.788;10.366;2022-12-07T00:05:31;9.00;99.90
43607;DHT22;29197;44.788;10.366;2022-12-07T00:08:20;8.90;99.90
43607;DHT22;29197;44.788;10.366;2022-12-07T00:11:13;8.90;99.90
43607;DHT22;29197;44.788;10.366;2022-12-07T00:14:06;8.90;99.90
43607;DHT22;29197;44.788;10.366;2022-12-07T00:16:55;8.70;99.90
43607;DHT22;29197;44.788;10.366;2022-12-07T11:52:18;10.20;99.90
43607;DHT22;29197;44.788;10.366;2022-12-07T11:55:19;10.10;99.90
43607;DHT22;29197;44.788;10.366;2022-12-07T11:58:20;10.00;99.90
43607;DHT22;29197;44.788;10.366;2022-12-07T12:01:21;10.00;99.90
43607;DHT22;29197;44.788;10.366;2022-12-07T12:04:23;10.10;99.90
43607;DHT22;29197;44.788;10.366;2022-12-07T12:07:19;10.20;99.90
43607;DHT22;29197;44.788;10.366;2022-12-07T12:10:39;10.10;99.90
43607;DHT22;29197;44.788;10.366;2022-12-07T12:14:08;10.10;99.90
43607;DHT22;29197;44.788;10.366;2022-12-07T12:17:33;10.20;99.90
43607;DHT22;29197;44.788;10.366;2022-12-07T12:20:28;10.40;99.90
43607;DHT22;29197;44.788;10.366;2022-12-07T12:23:22;10.40;99.90
43607;DHT22;29197;44.788;10.366;2022-12-07T12:26:16;10.50;99.90
43607;DHT22;29197;44.788;10.366;2022-12-07T12:29:18;10.40;99.90
43607;DHT22;29197;44.788;10.366;2022-12-07T12:32:15;10.30;99.90
43607;DHT22;29197;44.788;10.366;2022-12-07T12:35:28;10.10;99.90
43607;DHT22;29197;44.788;10.366;2022-12-07T12:38:34;10.00;99.90
43607;DHT22;29197;44.788;10.366;2022-12-07T12:45:11;9.70;99.90
43607;DHT22;29197;44.788;10.366;2022-12-07T12:48:28;9.60;99.90
43607;DHT22;29197;44.788;10.366;2022-12-07T12:51:37;9.60;99.90
43607;DHT22;29197;44.788;10.366;2022-12-07T12:54:29;9.60;99.90
43607;DHT22;29197;44.788;10.366;2022-12-07T12:57:26;9.60;99.90
43607;DHT22;29197;44.788;10.366;2022-12-07T13:00:18;9.50;99.90
43607;DHT22;29197;44.788;10.366;2022-12-07T13:03:22;9.50;99.90
43607;DHT22;29197;44.788;10.366;2022-12-07T13:06:20;9.40;99.90
43607;DHT22;29197;44.788;10.366;2022-12-07T13:09:23;9.30;99.90
43607;DHT22;29197;44.788;10.366;2022-12-07T13:12:16;9.30;99.90
43607;DHT22;29197;44.788;10.366;2022-12-07T13:15:32;9.40;99.90
43607;DHT22;29197;44.788;10.366;2022-12-07T13:18:25;9.70;99.90
43607;DHT22;29197;44.788;10.366;2022-12-07T13:21:42;10.10;99.90
43607;DHT22;29197;44.788;10.366;2022-12-07T13:24:32;10.40;99.90
43607;DHT22;29197;44.788;10.366;2022-12-07T13:27:24;10.40;99.90
43607;DHT22;29197;44.788;10.366;2022-12-07T13:33:04;10.30;99.90
43607;DHT22;29197;44.788;10.366;2022-12-07T13:35:55;10.10;99.90
43607;DHT22;29197;44.788;10.366;2022-12-07T13:38:58;9.90;99.90
43607;DHT22;29197;44.788;10.366;2022-12-07T13:41:50;9.70;99.90
43607;DHT22;29197;44.788;10.366;2022-12-07T13:44:42;9.60;99.90
43607;DHT22;29197;44.788;10.366;2022-12-07T13:47:34;9.50;99.90
43607;DHT22;29197;44.788;10.366;2022-12-07T13:53:18;9.20;99.90
43607;DHT22;29197;44.788;10.366;2022-12-07T13:56:13;8.90;99.90
43607;DHT22;29197;44.788;10.366;2022-12-07T13:59:03;8.70;99.90
43607;DHT22;29197;44.788;10.366;2022-12-07T14:01:56;8.60;99.90
43607;DHT22;29197;44.788;10.366;2022-12-07T14:04:45;8.70;99.90
43607;DHT22;29197;44.788;10.366;2022-12-07T14:07:34;8.70;99.90
43607;DHT22;29197;44.788;10.366;2022-12-07T14:10:26;8.60;99.90
43607;DHT22;29197;44.788;10.366;2022-12-07T14:13:29;8.40;99.90
43607;DHT22;29197;44.788;10.366;2022-12-07T14:16:24;7.80;99.90
43607;DHT22;29197;44.788;10.366;2022-12-07T14:19:43;7.80;99.90
43607;DHT22;29197;44.788;10.366;2022-12-07T14:22:37;7.90;99.90
43607;DHT22;29197;44.788;10.366;2022-12-07T14:25:26;8.00;99.90
43607;DHT22;29197;44.788;10.366;2022-12-07T14:28:26;8.10;99.90
43607;DHT22;29197;44.788;10.366;2022-12-07T14:31:17;8.20;99.90
43607;DHT22;29197;44.788;10.366;2022-12-07T14:34:16;8.20;99.90
43607;DHT22;29197;44.788;10.366;2022-12-07T14:37:09;8.20;99.90
43607;DHT22;29197;44.788;10.366;2022-12-07T14:39:58;8.30;99.90
43607;DHT22;29197;44.788;10.366;2022-12-07T14:42:51;8.20;99.90
43607;DHT22;29197;44.788;10.366;2022-12-07T14:45:42;8.20;99.90
43607;DHT22;29197;44.788;10.366;2022-12-07T14:48:31;8.30;99.90
43607;DHT22;29197;44.788;10.366;2022-12-07T14:51:41;8.30;99.90
43607;DHT22;29197;44.788;10.366;2022-12-07T14:54:52;8.30;99.90
43607;DHT22;29197;44.788;10.366;2022-12-07T14:57:42;8.00;99.90
43607;DHT22;29197;44.788;10.366;2022-12-07T15:00:31;8.00;99.90
43607;DHT22;29197;44.788;10.366;2022-12-07T15:03:21;8.00;99.90
43607;DHT22;29197;44.788;10.366;2022-12-07T15:06:14;7.90;99.90
43607;DHT22;29197;44.788;10.366;2022-12-07T15:09:05;8.10;99.90
43607;DHT22;29197;44.788;10.366;2022-12-07T15:11:57;8.10;99.90
43607;DHT22;29197;44.788;10.366;2022-12-07T15:14:46;8.20;99.90
43607;DHT22;29197;44.788;10.366;2022-12-07T15:17:35;8.20;99.90
43607;DHT22;29197;44.788;10.366;2022-12-07T15:20:25;8.30;99.90
43607;DHT22;29197;44.788;10.366;2022-12-07T15:23:15;8.40;99.90
43607;DHT22;29197;44.788;10.366;2022-12-07T15:26:04;8.40;99.90
43607;DHT22;29197;44.788;10.366;2022-12-07T15:28:55;8.40;99.90
43607;DHT22;29197;44.788;10.366;2022-12-07T15:31:48;8.30;99.90
43607;DHT22;29197;44.788;10.366;2022-12-07T15:34:44;8.30;99.90
43607;DHT22;29197;44.788;10.366;2022-12-07T15:37:33;8.30;99.90
43607;DHT22;29197;44.788;10.366;2022-12-07T15:40:23;8.30;99.90
43607;DHT22;29197;44.788;10.366;2022-12-07T15:43:12;8.30;99.90
43607;DHT22;29197;44.788;10.366;2022-12-07T15:46:16;8.20;99.90
43607;DHT22;29197;44.788;10.366;2022-12-07T15:49:10;8.20;99.90
43607;DHT22;29197;44.788;10.366;2022-12-07T15:51:59;8.20;99.90
43607;DHT22;29197;44.788;10.366;2022-12-07T15:54:48;8.10;99.90
43607;DHT22;29197;44.788;10.366;2022-12-07T15:57:38;8.10;99.90
43607;DHT22;29197;44.788;10.366;2022-12-07T16:00:28;8.10;99.90
43607;DHT22;29197;44.788;10.366;2022-12-07T16:03:19;8.00;99.90
43607;DHT22;29197;44.788;10.366;2022-12-07T16:06:09;8.00;99.90
43607;DHT22;29197;44.788;10.366;2022-12-07T16:08:58;8.00;99.90
43607;DHT22;29197;44.788;10.366;2022-12-07T16:11:48;7.90;99.90
43607;DHT22;29197;44.788;10.366;2022-12-07T16:14:39;7.80;99.90
43607;DHT22;29197;44.788;10.366;2022-12-07T16:17:28;7.80;99.90
43607;DHT22;29197;44.788;10.366;2022-12-07T16:20:20;7.80;99.90
43607;DHT22;29197;44.788;10.366;2022-12-07T16:23:09;7.90;99.90
43607;DHT22;29197;44.788;10.366;2022-12-07T16:26:04;8.00;99.90
43607;DHT22;29197;44.788;10.366;2022-12-07T16:28:54;8.00;99.90
43607;DHT22;29197;44.788;10.366;2022-12-07T16:31:44;8.00;99.90
43607;DHT22;29197;44.788;10.366;2022-12-07T16:34:33;8.00;99.90
43607;DHT22;29197;44.788;10.366;2022-12-07T16:37:24;8.00;99.90
43607;DHT22;29197;44.788;10.366;2022-12-07T16:40:14;8.00;99.90
43607;DHT22;29197;44.788;10.366;2022-12-07T16:43:04;7.90;99.90
43607;DHT22;29197;44.788;10.366;2022-12-07T16:45:54;7.80;99.90
43607;DHT22;29197;44.788;10.366;2022-12-07T16:48:43;7.90;99.90
43607;DHT22;29197;44.788;10.366;2022-12-07T16:51:32;7.90;99.90
43607;DHT22;29197;44.788;10.366;2022-12-07T16:57:18;7.60;99.90
43607;DHT22;29197;44.788;10.366;2022-12-07T17:00:11;7.30;99.90
43607;DHT22;29197;44.788;10.366;2022-12-07T17:03:02;7.40;99.90
43607;DHT22;29197;44.788;10.366;2022-12-07T17:05:52;7.30;99.90
43607;DHT22;29197;44.788;10.366;2022-12-07T17:08:41;6.90;99.90
43607;DHT22;29197;44.788;10.366;2022-12-07T17:11:31;6.70;99.90
43607;DHT22;29197;44.788;10.366;2022-12-07T17:14:21;6.40;99.90
43607;DHT22;29197;44.788;10.366;2022-12-07T17:17:32;6.40;99.90
43607;DHT22;29197;44.788;10.366;2022-12-07T17:20:24;6.50;99.90
43607;DHT22;29197;44.788;10.366;2022-12-07T17:23:13;6.60;99.90
43607;DHT22;29197;44.788;10.366;2022-12-07T17:26:06;6.80;99.90
43607;DHT22;29197;44.788;10.366;2022-12-07T17:28:57;6.90;99.90
43607;DHT22;29197;44.788;10.366;2022-12-07T17:31:47;7.00;99.90
43607;DHT22;29197;44.788;10.366;2022-12-07T17:34:38;7.00;99.90
43607;DHT22;29197;44.788;10.366;2022-12-07T17:37:27;7.00;99.90
43607;DHT22;29197;44.788;10.366;2022-12-07T17:40:17;7.00;99.90
43607;DHT22;29197;44.788;10.366;2022-12-07T17:43:07;7.20;99.90
43607;DHT22;29197;44.788;10.366;2022-12-07T17:45:58;7.30;99.90
43607;DHT22;29197;44.788;10.366;2022-12-07T17:48:46;7.40;99.90
43607;DHT22;29197;44.788;10.366;2022-12-07T17:51:36;7.40;99.90
43607;DHT22;29197;44.788;10.366;2022-12-07T17:54:43;7.40;99.90
43607;DHT22;29197;44.788;10.366;2022-12-07T17:57:32;7.50;99.90
43607;DHT22;29197;44.788;10.366;2022-12-07T18:00:22;7.60;99.90
43607;DHT22;29197;44.788;10.366;2022-12-07T18:03:12;7.60;99.90
43607;DHT22;29197;44.788;10.366;2022-12-07T18:06:00;7.60;99.90
43607;DHT22;29197;44.788;10.366;2022-12-07T18:08:49;7.70;99.90
43607;DHT22;29197;44.788;10.366;2022-12-07T18:11:38;7.70;99.90
43607;DHT22;29197;44.788;10.366;2022-12-07T18:14:27;7.70;99.90
43607;DHT22;29197;44.788;10.366;2022-12-07T18:17:16;7.50;99.90
43607;DHT22;29197;44.788;10.366;2022-12-07T18:20:07;7.50;99.90
43607;DHT22;29197;44.788;10.366;2022-12-07T18:22:56;7.10;99.90
43607;DHT22;29197;44.788;10.366;2022-12-07T18:25:46;6.60;99.90
43607;DHT22;29197;44.788;10.366;2022-12-07T18:28:35;6.20;99.90
43607;DHT22;29197;44.788;10.366;2022-12-07T18:31:24;6.50;99.90
43607;DHT22;29197;44.788;10.366;2022-12-07T18:34:15;6.70;99.90
43607;DHT22;29197;44.788;10.366;2022-12-07T18:37:05;6.90;99.90
43607;DHT22;29197;44.788;10.366;2022-12-07T18:39:54;7.10;99.90
43607;DHT22;29197;44.788;10.366;2022-12-07T18:45:34;7.90;99.90
43607;DHT22;29197;44.788;10.366;2022-12-07T18:48:23;8.20;99.90
43607;DHT22;29197;44.788;10.366;2022-12-07T18:51:13;8.10;99.90
43607;DHT22;29197;44.788;10.366;2022-12-07T18:54:04;7.70;99.90
43607;DHT22;29197;44.788;10.366;2022-12-07T18:56:53;7.30;99.90
43607;DHT22;29197;44.788;10.366;2022-12-07T18:59:43;6.60;99.90
43607;DHT22;29197;44.788;10.366;2022-12-07T19:05:26;6.20;99.90
43607;DHT22;29197;44.788;10.366;2022-12-07T19:08:16;5.90;99.90
43607;DHT22;29197;44.788;10.366;2022-12-07T19:11:07;5.80;99.90
43607;DHT22;29197;44.788;10.366;2022-12-07T19:14:10;5.70;99.90
43607;DHT22;29197;44.788;10.366;2022-12-07T19:17:02;5.50;99.90
43607;DHT22;29197;44.788;10.366;2022-12-07T19:19:52;5.60;99.90
43607;DHT22;29197;44.788;10.366;2022-12-07T19:22:42;5.80;99.90
